Birchwood, Wisconsin
Current Conditions -  °F | °C
As of 8:15 AM on Wednesday 26 Nov 2014 (Local Time) from KRPD Reporting Station
Overcast Overcast  
Wind Chill: 21°   Ceiling: 5000
Heat Index: 21°   Visibility: 10mi
Dew Point: 17°   Wind: 0mph
Humidity: 85%   Direction: NA
Pressure: 30.13"   Gusts: NA
Location:  45.67°N, 91.56°W
Report Text: KRPD 261415Z AUTO 00000KT 10SM SCT045 OVC050 M06/M08 A3013 RMK AO2 T10621084
Loading
Personal Weather Stations






























Interactive Weather Map New forecast layout! Learn more

10-Day Weather Forecast

Advertisements
Track Severe Weather on mobile